Time;durP1;ratioP1;P1;durP2;ratioP2;P2;SDS_P1;SDS_P2;PMS_P1;PMS_P2;Temp;Humidity;BMP_temperature;BMP_pressure;BME280_temperature;BME280_humidity;BME280_pressure;Samples;Min_cycle;Max_cycle;Signal;HPM_P1;HPM_P2
2021/06/08 00:01:52;;;;;;;17.20;11.23;;;;;;;16.77;100.00;96596.13;5042033;28;20694;-73
2021/06/08 00:04:18;;;;;;;18.00;11.57;;;;;;;16.81;100.00;96595.47;5041604;28;20221;-74
2021/06/08 00:06:44;;;;;;;17.48;10.90;;;;;;;16.86;100.00;96598.34;5041329;28;20250;-72
2021/06/08 00:09:11;;;;;;;15.73;10.60;;;;;;;16.79;100.00;96586.06;5041039;28;20235;-73
2021/06/08 00:11:37;;;;;;;18.45;11.23;;;;;;;16.75;100.00;96582.19;5040281;28;20225;-73
2021/06/08 00:14:03;;;;;;;18.02;11.05;;;;;;;16.76;100.00;96587.31;5041235;28;20221;-73
2021/06/08 00:16:29;;;;;;;18.90;11.40;;;;;;;16.78;100.00;96589.78;5041158;28;20205;-72
2021/06/08 00:18:55;;;;;;;17.95;11.38;;;;;;;16.74;100.00;96583.22;5042037;28;20204;-72
2021/06/08 00:21:21;;;;;;;18.80;11.10;;;;;;;16.69;100.00;96583.03;5041325;28;20201;-72
2021/06/08 00:23:47;;;;;;;17.75;11.73;;;;;;;16.65;100.00;96579.16;5040855;28;20770;-72
2021/06/08 00:26:15;;;;;;;16.80;10.82;;;;;;;16.64;100.00;96578.31;5040902;28;20220;-72
2021/06/08 00:28:41;;;;;;;17.45;11.05;;;;;;;16.61;100.00;96572.56;5040726;28;20197;-73
2021/06/08 00:31:07;;;;;;;19.92;11.52;;;;;;;16.66;100.00;96570.97;5042132;28;20252;-73
2021/06/08 00:33:32;;;;;;;21.25;11.52;;;;;;;16.64;100.00;96580.16;5041140;28;20299;-72
2021/06/08 00:35:58;;;;;;;21.10;11.63;;;;;;;16.46;100.00;96577.31;5040734;28;20365;-72
2021/06/08 00:38:24;;;;;;;17.42;11.32;;;;;;;16.55;100.00;96570.75;5041284;28;20236;-72
2021/06/08 00:40:50;;;;;;;20.25;12.43;;;;;;;16.49;100.00;96568.91;5041598;28;20224;-72
2021/06/08 00:43:23;;;;;;;20.83;12.27;;;;;;;16.54;100.00;96566.44;5041377;28;20229;-73
2021/06/08 00:45:49;;;;;;;19.13;11.95;;;;;;;16.49;100.00;96563.59;5040445;28;20205;-73
2021/06/08 00:48:15;;;;;;;21.95;12.23;;;;;;;16.48;100.00;96565.44;5041466;28;20208;-73
2021/06/08 00:50:41;;;;;;;19.90;11.48;;;;;;;16.49;100.00;96566.25;5040387;28;20221;-74
2021/06/08 00:53:07;;;;;;;14.40;9.40;;;;;;;16.36;100.00;96563.59;5040834;28;20221;-74
2021/06/08 00:55:33;;;;;;;13.80;8.43;;;;;;;16.34;100.00;96567.47;5040620;28;20209;-72
2021/06/08 00:57:59;;;;;;;18.33;11.30;;;;;;;16.22;100.00;96572.53;5041056;28;20205;-73
2021/06/08 01:00:28;;;;;;;20.63;11.57;;;;;;;16.24;100.00;96575.84;5039190;28;20252;-73
2021/06/08 01:02:54;;;;;;;17.17;11.35;;;;;;;16.35;100.00;96571.78;5041726;28;20221;-72
2021/06/08 01:05:20;;;;;;;16.88;10.90;;;;;;;16.38;100.00;96569.53;5038741;28;20334;-73
2021/06/08 01:07:46;;;;;;;15.27;9.73;;;;;;;16.37;100.00;96567.91;5040029;28;20202;-73
2021/06/08 01:10:13;;;;;;;14.25;9.52;;;;;;;16.29;100.00;96552.13;5040596;28;20213;-74
2021/06/08 01:12:40;;;;;;;14.27;8.98;;;;;;;16.32;100.00;96565.03;5040590;28;20229;-73
2021/06/08 01:15:07;;;;;;;15.60;8.50;;;;;;;16.16;100.00;96561.91;5039949;28;20224;-73
2021/06/08 01:17:35;;;;;;;14.85;9.43;;;;;;;16.09;100.00;96561.91;5040398;28;20263;-72
2021/06/08 01:20:02;;;;;;;13.63;10.00;;;;;;;16.09;100.00;96561.91;5041587;28;20197;-72
2021/06/08 01:22:30;;;;;;;14.48;9.65;;;;;;;16.12;100.00;96558.03;5039369;28;20583;-73
2021/06/08 01:24:56;;;;;;;15.48;10.13;;;;;;;16.13;100.00;96555.16;5040134;28;20208;-72
2021/06/08 01:27:23;;;;;;;17.02;10.55;;;;;;;16.18;100.00;96559.88;5039550;28;20201;-73
2021/06/08 01:29:51;;;;;;;19.83;11.02;;;;;;;16.24;100.00;96562.53;5039910;28;20259;-73
2021/06/08 01:32:18;;;;;;;20.77;11.30;;;;;;;16.09;100.00;96559.25;5040340;28;20999;-73
2021/06/08 01:34:44;;;;;;;24.92;10.60;;;;;;;16.11;100.00;96551.06;5040361;28;20221;-73
2021/06/08 01:37:14;;;;;;;12.68;7.22;;;;;;;16.00;100.00;96557.00;5039355;28;20220;-73
2021/06/08 01:39:42;;;;;;;11.80;7.45;;;;;;;15.95;100.00;96554.94;5040413;28;20219;-72
2021/06/08 01:42:09;;;;;;;11.93;7.30;;;;;;;15.85;100.00;96554.50;5039985;28;20544;-73
2021/06/08 01:44:35;;;;;;;16.23;9.93;;;;;;;15.85;100.00;96554.50;5039445;28;20225;-73
2021/06/08 01:47:01;;;;;;;15.82;10.23;;;;;;;15.79;100.00;96556.34;5039391;28;20197;-72
2021/06/08 01:49:27;;;;;;;16.67;11.70;;;;;;;15.79;100.00;96556.34;5039573;28;20247;-72
2021/06/08 01:52:00;;;;;;;17.17;11.55;;;;;;;15.84;100.00;96556.56;5040225;28;20704;-73
2021/06/08 01:54:32;;;;;;;15.13;10.52;;;;;;;15.79;100.00;96556.34;5039161;28;20591;-72
2021/06/08 01:57:07;;;;;;;19.10;11.77;;;;;;;15.77;100.00;96561.03;5040049;28;20330;-73
2021/06/08 01:59:45;;;;;;;15.60;10.07;;;;;;;15.80;100.00;96557.97;5040010;28;20208;-72
2021/06/08 02:02:16;;;;;;;13.60;9.45;;;;;;;15.88;100.00;96567.41;5039641;28;20200;-73
2021/06/08 02:04:45;;;;;;;13.93;8.35;;;;;;;15.89;100.00;96566.34;5039755;28;20217;-74
2021/06/08 02:07:25;;;;;;;10.25;7.38;;;;;;;15.89;100.00;96562.88;5038395;28;20212;-73
2021/06/08 02:09:58;;;;;;;9.57;7.40;;;;;;;15.77;100.00;96574.31;5034840;28;20270;-72
2021/06/08 02:12:26;;;;;;;13.23;8.00;;;;;;;15.74;100.00;96572.06;5039318;28;20232;-72
2021/06/08 02:15:00;;;;;;;13.43;9.88;;;;;;;15.79;100.00;96564.31;5037967;28;20208;-72
2021/06/08 02:17:31;;;;;;;15.02;9.95;;;;;;;15.80;100.00;96560.63;5039202;28;20614;-73
2021/06/08 02:20:03;;;;;;;18.98;11.40;;;;;;;15.90;100.00;96565.34;5039925;28;20713;-73
2021/06/08 02:22:30;;;;;;;20.15;13.48;;;;;;;15.95;100.00;96565.56;5038703;28;21022;-72
2021/06/08 02:24:58;;;;;;;19.52;12.23;;;;;;;15.93;100.00;96567.59;5038845;28;21454;-73
2021/06/08 02:27:27;;;;;;;20.63;10.73;;;;;;;15.90;100.00;96568.00;5038955;28;20212;-73
2021/06/08 02:29:54;;;;;;;16.77;9.90;;;;;;;15.88;100.00;96575.38;5039485;28;20205;-73
2021/06/08 02:32:21;;;;;;;18.13;10.90;;;;;;;15.87;100.00;96567.56;5038715;28;20221;-74
2021/06/08 02:34:48;;;;;;;19.58;13.55;;;;;;;15.80;100.00;96574.72;5039439;28;20254;-74
2021/06/08 02:37:17;;;;;;;24.27;14.05;;;;;;;15.79;100.00;96573.09;5038802;28;20205;-74
2021/06/08 02:39:44;;;;;;;33.90;14.50;;;;;;;15.77;100.00;96572.50;5038234;28;20216;-72
2021/06/08 02:42:12;;;;;;;20.52;13.13;;;;;;;15.87;100.00;96568.41;5038925;28;20201;-72
2021/06/08 02:44:42;;;;;;;19.38;11.23;;;;;;;15.87;100.00;96571.06;5038069;28;20240;-72
2021/06/08 02:47:08;;;;;;;13.73;8.65;;;;;;;15.92;100.00;96571.28;5037881;28;20605;-72
2021/06/08 02:49:35;;;;;;;16.48;9.98;;;;;;;15.89;100.00;96570.88;5039335;28;20201;-72
2021/06/08 02:52:01;;;;;;;16.63;10.90;;;;;;;15.85;100.00;96573.09;5038721;28;20225;-73
2021/06/08 02:54:28;;;;;;;18.75;9.98;;;;;;;15.91;100.00;96574.97;5038904;28;20225;-72
2021/06/08 02:56:56;;;;;;;14.43;9.52;;;;;;;15.76;100.00;96585.94;5036160;28;20572;-72
2021/06/08 02:59:23;;;;;;;15.40;9.00;;;;;;;15.84;100.00;96575.97;5038486;28;20212;-73
2021/06/08 03:01:55;;;;;;;18.48;10.20;;;;;;;15.79;100.00;96580.25;5039123;28;20247;-73
2021/06/08 03:04:24;;;;;;;18.65;11.68;;;;;;;15.57;100.00;96587.53;5038195;28;20224;-73
2021/06/08 03:06:53;;;;;;;21.85;12.55;;;;;;;15.66;100.00;96593.50;5037817;28;20212;-73
2021/06/08 03:09:28;;;;;;;17.85;11.43;;;;;;;15.68;100.00;96594.09;5038626;28;20213;-73
2021/06/08 03:11:57;;;;;;;15.52;10.38;;;;;;;15.69;100.00;96596.56;5038094;28;20262;-73
2021/06/08 03:14:24;;;;;;;10.30;8.10;;;;;;;15.65;100.00;96599.81;5038021;28;20287;-72
2021/06/08 03:16:55;;;;;;;19.05;11.40;;;;;;;15.64;100.00;96595.53;5037872;28;20197;-72
2021/06/08 03:19:24;;;;;;;20.23;11.48;;;;;;;15.59;100.00;96597.94;5038567;28;20209;-73
2021/06/08 03:21:53;;;;;;;22.08;12.77;;;;;;;15.64;100.00;96599.00;5037712;28;20221;-72
2021/06/08 03:24:24;;;;;;;23.27;15.63;;;;;;;15.67;100.00;96605.75;5038406;28;20229;-72
2021/06/08 03:26:52;;;;;;;25.20;15.55;;;;;;;15.69;100.00;96604.53;5036317;28;20578;-73
2021/06/08 03:29:20;;;;;;;24.77;15.88;;;;;;;15.76;100.00;96592.09;5037688;28;20208;-73
2021/06/08 03:31:48;;;;;;;23.63;14.80;;;;;;;15.80;100.00;96608.47;5038891;28;20707;-73
2021/06/08 03:34:16;;;;;;;23.95;13.10;;;;;;;15.78;100.00;96599.88;5037750;28;20225;-73
2021/06/08 03:36:43;;;;;;;22.95;14.80;;;;;;;15.86;100.00;96598.66;5036554;28;20197;-73
2021/06/08 03:39:11;;;;;;;24.27;13.82;;;;;;;15.87;100.00;96607.44;5039145;28;20205;-72
2021/06/08 03:41:38;;;;;;;23.48;14.13;;;;;;;15.85;100.00;96605.00;5038223;28;20201;-73
2021/06/08 03:44:05;;;;;;;24.75;14.93;;;;;;;15.68;100.00;96604.72;5038355;28;20250;-73
2021/06/08 03:46:34;;;;;;;30.33;17.02;;;;;;;15.78;100.00;96611.31;5037348;28;20220;-73
2021/06/08 03:49:00;;;;;;;23.40;14.98;;;;;;;15.88;100.00;96609.09;5037423;28;20444;-72
2021/06/08 03:51:29;;;;;;;26.95;16.50;;;;;;;15.86;100.00;96619.13;5037337;28;20236;-74
2021/06/08 03:53:56;;;;;;;31.38;17.27;;;;;;;15.84;100.00;96617.69;5037961;28;20217;-72
2021/06/08 03:56:22;;;;;;;30.40;17.25;;;;;;;15.95;100.00;96618.72;5038016;28;20201;-73
2021/06/08 03:58:49;;;;;;;24.67;14.60;;;;;;;15.95;100.00;96615.25;5037702;28;20193;-73
2021/06/08 04:01:15;;;;;;;23.13;14.48;;;;;;;15.95;100.00;96624.03;5038719;28;20197;-73
2021/06/08 04:03:42;;;;;;;21.63;13.90;;;;;;;15.87;100.00;96623.38;5037657;28;20232;-73
2021/06/08 04:06:08;;;;;;;19.33;12.63;;;;;;;15.96;100.00;96615.06;5036020;28;20243;-72
2021/06/08 04:08:36;;;;;;;20.80;13.32;;;;;;;15.91;100.00;96617.50;5037997;28;20209;-73
2021/06/08 04:11:02;;;;;;;30.77;16.40;;;;;;;15.86;100.00;96614.59;5037773;28;20225;-72
2021/06/08 04:13:28;;;;;;;28.63;16.75;;;;;;;15.92;100.00;96613.81;5038154;28;20228;-73
2021/06/08 04:15:54;;;;;;;29.23;16.70;;;;;;;15.86;100.00;96619.94;5035856;28;20741;-72
2021/06/08 04:18:21;;;;;;;26.02;16.45;;;;;;;15.95;100.00;96617.91;5037169;28;20618;-73
2021/06/08 04:20:47;;;;;;;25.30;14.52;;;;;;;15.96;100.00;96617.72;5037908;28;20675;-73
2021/06/08 04:23:13;;;;;;;24.40;11.68;;;;;;;15.95;100.00;96609.94;5037764;28;20712;-73
2021/06/08 04:25:44;;;;;;;17.48;11.60;;;;;;;15.99;100.00;96619.97;5036549;28;20216;-74
2021/06/08 04:28:10;;;;;;;22.92;12.77;;;;;;;16.17;100.00;96612.22;5037958;28;20212;-73
2021/06/08 04:30:36;;;;;;;20.55;12.70;;;;;;;16.29;100.00;96610.63;5037283;28;20693;-73
2021/06/08 04:33:02;;;;;;;21.40;13.70;;;;;;;16.32;100.00;96623.53;5037726;28;20229;-73
2021/06/08 04:35:28;;;;;;;28.45;15.32;;;;;;;16.33;100.00;96627.00;5041552;28;20228;-73
2021/06/08 04:37:54;;;;;;;35.60;16.88;;;;;;;16.44;100.00;96623.75;5040855;28;20623;-73
2021/06/08 04:40:20;;;;;;;25.23;15.82;;;;;;;16.50;100.00;96618.44;5040565;28;20232;-73
2021/06/08 04:42:49;;;;;;;29.48;16.65;;;;;;;16.61;100.00;96620.47;5040726;28;20667;-73
2021/06/08 04:45:16;;;;;;;28.27;16.20;;;;;;;16.66;100.00;96620.69;5040333;28;20209;-73
2021/06/08 04:47:43;;;;;;;29.05;16.65;;;;;;;16.79;100.00;96624.16;5040883;28;20243;-73
2021/06/08 04:50:12;;;;;;;34.05;17.95;;;;;;;16.90;100.00;96622.72;5040021;28;20205;-73
2021/06/08 04:52:38;;;;;;;33.70;19.15;;;;;;;16.87;100.00;96623.94;5040314;28;20221;-72
2021/06/08 04:55:05;;;;;;;30.73;18.98;;;;;;;16.93;100.00;96624.97;5040419;28;20259;-73
2021/06/08 04:57:33;;;;;;;33.38;19.95;;;;;;;17.01;100.00;96616.78;5041390;28;20209;-72
2021/06/08 05:00:05;;;;;;;33.05;20.85;;;;;;;17.06;100.00;96624.97;5040347;28;20581;-72
2021/06/08 05:02:36;;;;;;;32.50;19.80;;;;;;;17.11;100.00;96618.78;5040768;28;20204;-72
2021/06/08 05:05:05;;;;;;;33.33;21.60;;;;;;;17.18;100.00;96624.94;5040690;28;20205;-73
2021/06/08 05:07:35;;;;;;;37.50;22.23;;;;;;;17.16;100.00;96621.66;5040461;28;20209;-73
2021/06/08 05:10:03;;;;;;;39.22;21.85;;;;;;;17.17;100.00;96617.97;5040258;28;20219;-72
2021/06/08 05:12:31;;;;;;;35.80;21.30;;;;;;;17.22;100.00;96634.16;5040880;28;20233;-72
2021/06/08 05:15:00;;;;;;;37.30;22.48;;;;;;;17.19;100.00;96623.88;5040098;28;20726;-72
2021/06/08 05:17:31;;;;;;;38.78;22.48;;;;;;;17.18;100.00;96632.09;5041054;28;20582;-72
2021/06/08 05:19:57;;;;;;;38.13;24.77;;;;;;;17.15;100.00;96635.19;5040679;28;20212;-72
2021/06/08 05:22:25;;;;;;;37.42;22.13;;;;;;;17.16;100.00;96640.28;5039800;28;20204;-72
2021/06/08 05:24:53;;;;;;;37.10;23.80;;;;;;;17.17;100.00;96641.09;5040052;28;20217;-72
2021/06/08 05:27:21;;;;;;;41.60;24.30;;;;;;;17.22;100.00;96642.13;5039814;28;20209;-73
2021/06/08 05:29:47;;;;;;;36.85;23.10;;;;;;;17.24;100.00;96650.75;5040955;28;20197;-72
2021/06/08 05:32:14;;;;;;;34.05;21.77;;;;;;;17.29;100.00;96653.63;5040134;28;20287;-72
2021/06/08 05:34:42;;;;;;;38.58;24.05;;;;;;;17.29;100.00;96650.94;5040799;28;20225;-73
2021/06/08 05:37:09;;;;;;;41.30;24.17;;;;;;;17.36;100.00;96653.59;5039617;28;20197;-72
2021/06/08 05:39:37;;;;;;;39.90;24.05;;;;;;;17.38;100.00;96652.38;5039847;28;20629;-72
2021/06/08 05:42:04;;;;;;;37.80;25.38;;;;;;;17.26;100.00;96654.03;5039372;28;20193;-72
2021/06/08 05:44:30;;;;;;;43.17;25.63;;;;;;;17.40;100.00;96653.00;5039124;28;20784;-72
2021/06/08 05:46:56;;;;;;;45.13;26.25;;;;;;;17.45;100.00;96658.50;5039323;28;20205;-72
2021/06/08 05:49:22;;;;;;;41.83;25.83;;;;;;;17.50;100.00;96649.88;5039659;28;20205;-72
2021/06/08 05:51:50;;;;;;;44.30;28.33;;;;;;;17.46;100.00;96657.47;5040261;28;20225;-72
2021/06/08 05:54:17;;;;;;;46.35;27.48;;;;;;;17.53;100.00;96655.63;5038624;28;20225;-73
2021/06/08 05:56:43;;;;;;;47.17;28.17;;;;;;;17.52;100.00;96656.63;5038143;28;20212;-73
2021/06/08 05:59:14;;;;;;;48.42;28.92;;;;;;;17.65;100.00;96658.44;5039015;28;20197;-72
2021/06/08 06:01:40;;;;;;;47.80;29.98;;;;;;;17.71;100.00;96658.44;5039043;28;20216;-73
2021/06/08 06:04:06;;;;;;;47.65;31.08;;;;;;;17.80;100.00;96652.63;5038796;28;20228;-72
2021/06/08 06:06:33;;;;;;;46.95;29.77;;;;;;;17.86;100.00;96653.66;5038081;28;20197;-72
2021/06/08 06:09:01;;;;;;;48.83;29.90;;;;;;;17.93;100.00;96643.78;5039243;28;20201;-72
2021/06/08 06:11:29;;;;;;;49.13;31.00;;;;;;;17.98;100.00;96646.63;5039139;28;20225;-72
2021/06/08 06:14:01;;;;;;;48.13;30.77;;;;;;;18.01;100.00;96648.84;5039138;28;20320;-73
2021/06/08 06:16:30;;;;;;;47.15;29.52;;;;;;;18.12;100.00;96645.53;5039308;28;20233;-72
2021/06/08 06:18:56;;;;;;;48.42;31.00;;;;;;;18.19;100.00;96651.66;5038372;28;20288;-72
2021/06/08 06:21:25;;;;;;;45.40;29.42;;;;;;;18.22;100.00;96651.25;5038582;28;20762;-72
2021/06/08 06:23:51;;;;;;;47.75;30.17;;;;;;;18.40;100.00;96649.50;5039956;28;20225;-73
2021/06/08 06:26:19;;;;;;;47.58;30.73;;;;;;;18.46;100.00;96652.13;5038710;28;20559;-71
2021/06/08 06:28:46;;;;;;;45.15;28.75;;;;;;;18.42;100.00;96658.91;5039001;28;20208;-72
2021/06/08 06:31:12;;;;;;;46.35;29.08;;;;;;;18.50;100.00;96661.31;5039759;28;20213;-72
2021/06/08 06:33:41;;;;;;;46.25;31.02;;;;;;;18.56;100.00;96657.81;5038777;28;20224;-72
2021/06/08 06:36:09;;;;;;;48.00;29.88;;;;;;;18.58;100.00;96658.41;5038111;28;20204;-73
2021/06/08 06:38:36;;;;;;;50.80;31.55;;;;;;;18.59;100.00;96661.88;5038910;28;20205;-72
2021/06/08 06:41:06;;;;;;;43.00;28.70;;;;;;;18.50;100.00;96661.31;5038653;28;20205;-72
2021/06/08 06:43:36;;;;;;;44.90;28.95;;;;;;;18.55;100.00;96661.50;5038188;28;20841;-72
2021/06/08 06:46:03;;;;;;;46.30;29.50;;;;;;;18.53;100.00;96663.59;5038151;28;20223;-72
2021/06/08 06:48:29;;;;;;;45.13;29.05;;;;;;;18.49;100.00;96666.88;5038529;28;20287;-72
2021/06/08 06:50:56;;;;;;;46.05;30.23;;;;;;;18.48;100.00;96662.56;5038587;28;20737;-72
2021/06/08 06:53:22;;;;;;;45.78;29.20;;;;;;;18.61;100.00;96665.16;5038331;28;20236;-72
2021/06/08 06:55:49;;;;;;;44.60;28.40;;;;;;;18.53;100.00;96671.59;5037529;28;20197;-72
2021/06/08 06:58:17;;;;;;;42.28;28.40;;;;;;;18.52;100.00;96669.94;5037991;28;20205;-72
2021/06/08 07:00:46;;;;;;;44.90;28.67;;;;;;;18.57;100.00;96667.44;5037879;28;20205;-72
2021/06/08 07:03:14;;;;;;;45.40;30.10;;;;;;;18.45;100.00;96666.47;5038611;28;20594;-72
2021/06/08 07:05:43;;;;;;;45.60;30.20;;;;;;;18.55;100.00;96664.16;5037911;28;20275;-72
2021/06/08 07:08:10;;;;;;;48.22;29.67;;;;;;;18.63;100.00;96671.91;5038371;28;20205;-72
2021/06/08 07:10:37;;;;;;;44.33;29.55;;;;;;;18.74;100.00;96671.22;5038488;28;20209;-72
2021/06/08 07:13:06;;;;;;;45.50;29.60;;;;;;;18.88;100.00;96674.63;5038531;28;20827;-72
2021/06/08 07:15:33;;;;;;;38.58;26.33;;;;;;;19.08;100.00;96670.75;5037987;28;20275;-72
2021/06/08 07:18:00;;;;;;;33.17;22.92;;;;;;;19.38;100.00;96677.06;5037677;28;20197;-72
2021/06/08 07:20:29;;;;;;;31.25;21.83;;;;;;;19.73;100.00;96669.09;5038237;28;20255;-72
2021/06/08 07:22:57;;;;;;;30.92;22.85;;;;;;;19.91;100.00;96668.31;5037858;28;20213;-72
2021/06/08 07:25:24;;;;;;;32.92;23.48;;;;;;;20.21;100.00;96664.59;5037260;28;20209;-72
2021/06/08 07:27:52;;;;;;;39.17;25.05;;;;;;;20.30;100.00;96672.09;5037711;28;20204;-71
2021/06/08 07:30:19;;;;;;;34.85;24.77;;;;;;;20.24;100.00;96672.19;5038712;28;20213;-72
2021/06/08 07:32:54;;;;;;;31.15;22.70;;;;;;;20.34;100.00;96669.78;5037244;28;20228;-72
2021/06/08 07:35:28;;;;;;;30.83;21.70;;;;;;;20.34;100.00;96669.78;5035982;28;20699;-72
2021/06/08 07:37:58;;;;;;;33.53;22.65;;;;;;;20.46;100.00;96662.63;5038328;28;20637;-72
2021/06/08 07:40:27;;;;;;;36.40;26.35;;;;;;;20.30;100.00;96664.09;5036887;28;20252;-71
2021/06/08 07:42:56;;;;;;;36.25;24.63;;;;;;;20.44;100.00;96659.34;5037932;28;20216;-72
2021/06/08 07:45:25;;;;;;;31.35;21.70;;;;;;;20.76;100.00;96660.75;5037217;28;20228;-72
2021/06/08 07:47:53;;;;;;;31.98;21.58;;;;;;;21.00;100.00;96658.72;5037025;28;20212;-72
2021/06/08 07:50:25;;;;;;;30.55;23.02;;;;;;;21.15;100.00;96661.75;5037491;28;20675;-72
2021/06/08 07:52:51;;;;;;;31.23;22.10;;;;;;;21.11;100.00;96657.09;5036980;28;20721;-71
2021/06/08 07:55:19;;;;;;;31.48;24.20;;;;;;;21.07;100.00;96651.38;5036640;28;20283;-71
2021/06/08 07:57:46;;;;;;;31.13;23.50;;;;;;;20.90;100.00;96660.31;5037303;28;20201;-71
2021/06/08 08:00:13;;;;;;;35.90;24.85;;;;;;;20.72;100.00;96662.22;5037557;28;20629;-71
2021/06/08 08:02:40;;;;;;;35.80;24.65;;;;;;;20.82;100.00;96657.16;5037528;28;20601;-71
2021/06/08 08:05:10;;;;;;;35.38;23.83;;;;;;;20.77;100.00;96665.06;5035866;28;20204;-71
2021/06/08 08:07:39;;;;;;;31.55;23.00;;;;;;;20.89;100.00;96662.19;5036317;28;20201;-71
2021/06/08 08:10:06;;;;;;;36.67;25.58;;;;;;;20.87;100.00;96664.28;5039402;28;20209;-71
2021/06/08 08:12:35;;;;;;;31.25;22.92;;;;;;;21.24;100.00;96667.59;5040623;28;20240;-71
2021/06/08 08:15:02;;;;;;;30.05;21.70;;;;;;;21.45;100.00;96670.50;5040761;28;20209;-71
2021/06/08 08:17:28;;;;;;;33.35;22.60;;;;;;;21.65;100.00;96676.34;5042421;28;20976;-71
2021/06/08 08:19:55;;;;;;;34.33;24.27;;;;;;;21.86;100.00;96673.88;5041332;28;20205;-71
2021/06/08 08:22:21;;;;;;;30.95;21.88;;;;;;;22.23;98.51;96675.19;5040922;28;20206;-71
2021/06/08 08:24:49;;;;;;;31.13;22.42;;;;;;;22.21;96.31;96667.38;5042165;28;20713;-71
2021/06/08 08:27:15;;;;;;;31.67;23.63;;;;;;;21.99;100.00;96667.44;5040966;28;20217;-72
2021/06/08 08:29:43;;;;;;;29.77;21.98;;;;;;;22.30;100.00;96674.03;5042152;28;20305;-71
2021/06/08 08:32:10;;;;;;;29.90;22.88;;;;;;;22.44;97.39;96667.31;5040930;28;20247;-71
2021/06/08 08:34:38;;;;;;;33.90;24.50;;;;;;;22.52;96.19;96672.31;5040533;28;21079;-71
2021/06/08 08:37:04;;;;;;;28.20;22.25;;;;;;;22.37;95.85;96672.00;5039844;28;20204;-71
2021/06/08 08:39:30;;;;;;;32.90;24.70;;;;;;;22.34;96.00;96674.34;5040667;28;20209;-71
2021/06/08 08:41:58;;;;;;;31.60;23.40;;;;;;;22.26;97.67;96672.06;5040984;28;20208;-71
2021/06/08 08:44:25;;;;;;;34.10;25.52;;;;;;;21.87;92.92;96672.00;5040692;28;20233;-71
2021/06/08 08:46:51;;;;;;;33.08;23.48;;;;;;;21.82;93.46;96683.44;5039662;28;20209;-71
2021/06/08 08:49:17;;;;;;;33.85;25.92;;;;;;;21.41;98.82;96671.19;5039912;28;20271;-71
2021/06/08 08:51:44;;;;;;;35.45;25.13;;;;;;;21.39;96.99;96674.13;5040440;28;20632;-71
2021/06/08 08:54:13;;;;;;;35.10;26.38;;;;;;;21.00;97.60;96676.66;5040241;28;20221;-71
2021/06/08 08:56:40;;;;;;;36.28;26.58;;;;;;;21.07;96.38;96675.50;5036100;28;20567;-71
2021/06/08 08:59:10;;;;;;;35.08;25.70;;;;;;;21.13;100.00;96671.06;5039743;28;20690;-72
2021/06/08 09:01:37;;;;;;;35.45;25.10;;;;;;;21.33;100.00;96669.69;5039410;28;20209;-71
2021/06/08 09:04:05;;;;;;;33.08;24.30;;;;;;;21.36;100.00;96671.91;5038984;28;20228;-71
2021/06/08 09:06:32;;;;;;;34.85;25.52;;;;;;;21.32;99.36;96673.44;5039784;28;20209;-71
2021/06/08 09:08:59;;;;;;;31.75;24.33;;;;;;;21.48;98.75;96670.84;5039547;28;20589;-71
2021/06/08 09:11:25;;;;;;;36.70;26.30;;;;;;;21.38;100.00;96675.16;5040058;28;20205;-71
2021/06/08 09:13:51;;;;;;;36.10;25.45;;;;;;;21.45;100.00;96681.25;5039718;28;20225;-72
2021/06/08 09:16:19;;;;;;;34.20;25.15;;;;;;;21.55;97.23;96681.50;5038552;28;20671;-72
2021/06/08 09:18:46;;;;;;;35.90;26.77;;;;;;;21.47;93.49;96679.13;5039960;28;20206;-71
2021/06/08 09:21:19;;;;;;;34.70;24.77;;;;;;;21.54;97.19;96683.34;5039530;28;20251;-71
2021/06/08 09:23:45;;;;;;;36.72;25.67;;;;;;;21.39;98.90;96682.16;5039081;28;20231;-71
2021/06/08 09:26:14;;;;;;;33.30;26.83;;;;;;;21.82;93.78;96679.97;5038981;28;20205;-71
2021/06/08 09:28:40;;;;;;;32.08;25.00;;;;;;;22.11;93.27;96680.59;5039616;28;20209;-71
2021/06/08 09:31:11;;;;;;;32.58;24.23;;;;;;;22.59;91.61;96685.59;5039883;28;20205;-71
2021/06/08 09:33:39;;;;;;;35.72;24.90;;;;;;;22.80;93.56;96688.41;5039165;28;20236;-71
2021/06/08 09:36:07;;;;;;;33.42;23.67;;;;;;;23.07;89.17;96684.09;5038989;28;20205;-71
2021/06/08 09:38:45;;;;;;;30.52;24.50;;;;;;;22.95;89.76;96680.59;5038813;28;20275;-71
2021/06/08 09:41:22;;;;;;;35.25;25.02;;;;;;;23.09;89.14;96687.31;5039658;28;20810;-72
2021/06/08 09:43:58;;;;;;;29.40;23.13;;;;;;;23.31;89.24;96679.09;5041114;28;20213;-72
2021/06/08 09:46:30;;;;;;;31.52;23.90;;;;;;;23.38;87.57;96679.78;5038184;28;20204;-72
2021/06/08 09:48:59;;;;;;;31.02;23.13;;;;;;;23.25;92.52;96681.97;5039265;28;20290;-71
2021/06/08 09:51:26;;;;;;;30.58;23.63;;;;;;;23.34;97.83;96672.41;5039216;28;20220;-71
2021/06/08 09:53:52;;;;;;;30.75;22.90;;;;;;;23.51;85.88;96675.91;5038665;28;20274;-71
2021/06/08 09:56:20;;;;;;;28.92;21.98;;;;;;;23.36;87.64;96676.50;5039187;28;20294;-72
2021/06/08 09:58:48;;;;;;;32.75;24.25;;;;;;;23.04;88.38;96674.63;5039158;28;20201;-71
2021/06/08 10:01:20;;;;;;;29.35;21.55;;;;;;;23.45;82.14;96675.03;5039338;28;20678;-72
2021/06/08 10:03:51;;;;;;;27.17;23.25;;;;;;;23.59;86.41;96679.00;5039793;28;20706;-72
2021/06/08 10:06:20;;;;;;;30.73;23.27;;;;;;;23.67;88.80;96673.19;5038234;28;20968;-72
2021/06/08 10:08:59;;;;;;;27.83;22.08;;;;;;;23.95;88.46;96671.22;5039527;28;20204;-72
2021/06/08 10:11:28;;;;;;;28.60;21.55;;;;;;;23.71;84.33;96670.84;5038830;28;20201;-72
2021/06/08 10:13:59;;;;;;;25.77;19.80;;;;;;;23.92;87.20;96675.44;5038985;28;20308;-71
2021/06/08 10:16:29;;;;;;;27.25;20.80;;;;;;;23.72;80.17;96672.50;5038433;28;20213;-72
2021/06/08 10:18:55;;;;;;;28.88;20.70;;;;;;;24.01;79.38;96677.47;5039448;28;20205;-71
2021/06/08 10:21:38;;;;;;;29.05;20.63;;;;;;;23.48;79.45;96673.72;5038464;28;20213;-72
2021/06/08 10:24:05;;;;;;;25.20;19.83;;;;;;;23.45;82.92;96672.31;5039997;28;20801;-72
2021/06/08 10:26:34;;;;;;;21.98;18.52;;;;;;;23.72;86.80;96667.13;5038709;28;20596;-72
2021/06/08 10:29:03;;;;;;;21.50;17.73;;;;;;;23.88;78.53;96675.16;5038300;28;20697;-72
2021/06/08 10:31:30;;;;;;;24.77;18.58;;;;;;;23.95;79.57;96675.78;5038502;28;20204;-72
2021/06/08 10:33:57;;;;;;;25.30;20.77;;;;;;;24.09;80.83;96667.06;5039519;28;20283;-72
2021/06/08 10:36:24;;;;;;;23.75;19.60;;;;;;;24.53;78.17;96668.72;5038317;28;20212;-72
2021/06/08 10:38:51;;;;;;;25.98;19.73;;;;;;;24.21;80.96;96666.94;5039888;28;20205;-71
2021/06/08 10:41:17;;;;;;;26.52;19.70;;;;;;;24.00;77.50;96673.16;5039342;28;20596;-72
2021/06/08 10:43:43;;;;;;;24.73;19.45;;;;;;;23.71;83.63;96666.28;5039564;28;20229;-71
2021/06/08 10:46:22;;;;;;;26.42;20.35;;;;;;;23.36;86.77;96664.94;5038314;28;20224;-72
2021/06/08 10:48:50;;;;;;;24.08;19.58;;;;;;;23.58;80.60;96666.59;5038594;28;20224;-72
2021/06/08 10:51:18;;;;;;;26.05;20.98;;;;;;;23.92;75.50;96658.22;5038529;28;20209;-71
2021/06/08 10:53:47;;;;;;;27.67;20.10;;;;;;;23.67;78.05;96669.69;5040857;28;20286;-71
2021/06/08 10:56:29;;;;;;;25.42;20.33;;;;;;;23.85;79.83;96664.84;5044091;28;20212;-71
2021/06/08 10:58:58;;;;;;;26.45;21.20;;;;;;;24.04;77.60;96656.25;5044062;28;20205;-71
2021/06/08 11:01:47;;;;;;;28.00;20.45;;;;;;;23.94;80.59;96661.50;5043750;28;20201;-71
2021/06/08 11:04:16;;;;;;;25.13;18.65;;;;;;;23.88;75.52;96661.69;5046165;28;20733;-71
2021/06/08 11:06:49;;;;;;;26.20;19.40;;;;;;;23.76;77.78;96652.09;5041879;28;20217;-71
2021/06/08 11:09:16;;;;;;;21.75;18.42;;;;;;;24.02;75.68;96662.97;5040718;28;20295;-72
2021/06/08 11:11:49;;;;;;;26.00;19.55;;;;;;;24.21;78.73;96657.00;5040000;28;20742;-71
2021/06/08 11:14:54;;;;;;;20.83;17.23;;;;;;;24.86;75.36;96642.38;5039942;28;20229;-72
2021/06/08 11:17:44;;;;;;;21.52;17.10;;;;;;;24.99;74.44;96638.44;5040144;28;21215;-72